Time;durP1;ratioP1;P1;durP2;ratioP2;P2;SDS_P1;SDS_P2;PMS_P1;PMS_P2;Temp;Humidity;BMP_temperature;BMP_pressure;BME280_temperature;BME280_humidity;BME280_pressure;Samples;Min_cycle;Max_cycle;Signal;HPM_P1;HPM_P2
2021/01/23 00:02:20;;;;;;;19.15;11.68;;;;;;;3.47;94.98;94594.47;5026139;28;22815;-65
2021/01/23 00:04:46;;;;;;;22.65;13.02;;;;;;;3.36;95.47;94609.81;5029914;28;20479;-62
2021/01/23 00:07:11;;;;;;;21.02;11.80;;;;;;;3.37;95.13;94619.50;5013202;28;20048;-63
2021/01/23 00:09:37;;;;;;;19.65;11.73;;;;;;;3.21;95.59;94631.31;5021608;28;20550;-63
2021/01/23 00:12:03;;;;;;;12.02;7.30;;;;;;;3.09;95.16;94618.03;5010335;28;20128;-62
2021/01/23 00:14:29;;;;;;;5.25;3.33;;;;;;;2.74;92.96;94657.00;5015144;28;20046;-62
2021/01/23 00:16:54;;;;;;;5.32;3.25;;;;;;;2.58;92.17;94659.88;5026442;28;20205;-63
2021/01/23 00:19:20;;;;;;;4.97;2.78;;;;;;;2.32;92.49;94678.78;5001307;28;20046;-64
2021/01/23 00:21:45;;;;;;;4.07;1.77;;;;;;;2.14;92.07;94684.69;5013833;28;20041;-64
2021/01/23 00:24:11;;;;;;;1.40;1.30;;;;;;;1.94;91.49;94710.97;5033085;28;20045;-64
2021/01/23 00:26:37;;;;;;;2.63;1.63;;;;;;;1.79;92.84;94709.16;5023325;28;20137;-62
2021/01/23 00:29:03;;;;;;;2.20;1.40;;;;;;;1.71;93.75;94727.13;5022337;28;20557;-64
2021/01/23 00:31:28;;;;;;;1.65;1.13;;;;;;;1.59;92.75;94727.31;5019571;28;20387;-62
2021/01/23 00:33:53;;;;;;;1.48;1.10;;;;;;;1.57;92.83;94737.66;5021475;28;20136;-64
2021/01/23 00:36:19;;;;;;;1.48;1.23;;;;;;;1.47;93.22;94757.91;5018071;28;20029;-64
2021/01/23 00:38:44;;;;;;;1.02;0.93;;;;;;;1.41;93.57;94764.75;5022928;28;20140;-63
2021/01/23 00:41:10;;;;;;;0.93;0.80;;;;;;;1.42;93.72;94780.53;5017420;28;20418;-61
2021/01/23 00:43:36;;;;;;;1.10;1.00;;;;;;;1.33;93.42;94783.47;5020615;28;20091;-64
2021/01/23 00:46:02;;;;;;;1.42;1.10;;;;;;;1.47;93.60;94799.16;5020494;28;20118;-62
2021/01/23 00:48:28;;;;;;;1.63;0.90;;;;;;;1.20;92.82;94802.81;5018864;28;20052;-63
2021/01/23 00:50:53;;;;;;;1.13;0.88;;;;;;;1.05;93.07;94815.22;5022809;28;20125;-62
2021/01/23 00:53:18;;;;;;;1.10;1.00;;;;;;;0.91;93.13;94826.44;5015704;28;20049;-62
2021/01/23 00:55:44;;;;;;;1.40;0.95;;;;;;;0.84;93.66;94834.38;5021907;28;20247;-64
2021/01/23 00:58:09;;;;;;;1.05;0.95;;;;;;;0.68;93.26;94837.84;5016533;28;20041;-62
2021/01/23 01:00:35;;;;;;;0.90;0.90;;;;;;;0.50;94.65;94850.09;5020139;28;20144;-65
2021/01/23 01:03:00;;;;;;;0.73;0.73;;;;;;;0.32;95.02;94857.72;5022567;28;20170;-63
2021/01/23 01:05:26;;;;;;;0.80;0.80;;;;;;;0.23;94.84;94859.81;5017551;28;20120;-61
2021/01/23 01:07:51;;;;;;;1.00;0.90;;;;;;;0.24;95.44;94850.63;5022810;28;20037;-65
2021/01/23 01:10:17;;;;;;;0.80;0.80;;;;;;;0.18;95.18;94869.72;5016363;28;20473;-61
2021/01/23 01:12:42;;;;;;;0.82;0.82;;;;;;;0.17;95.16;94878.91;5021798;28;20041;-62
2021/01/23 01:15:08;;;;;;;0.88;0.88;;;;;;;0.11;95.46;94884.88;5001266;28;20041;-63
2021/01/23 01:17:34;;;;;;;0.60;0.60;;;;;;;0.02;95.49;94889.63;5043854;28;20072;-62
2021/01/23 01:19:59;;;;;;;0.63;0.63;;;;;;;-0.04;95.97;94905.22;5027336;28;20046;-61
2021/01/23 01:22:24;;;;;;;0.80;0.80;;;;;;;-0.10;96.43;94917.38;5015880;28;20039;-64
2021/01/23 01:24:50;;;;;;;0.85;0.85;;;;;;;-0.14;96.23;94917.28;5021704;28;20130;-62
2021/01/23 01:27:15;;;;;;;0.85;0.85;;;;;;;-0.22;96.65;94921.69;5012353;28;20041;-62
2021/01/23 01:29:41;;;;;;;0.90;0.90;;;;;;;-0.23;96.81;94933.56;5021873;28;20490;-61
2021/01/23 01:32:06;;;;;;;1.58;1.05;;;;;;;-0.24;96.69;94933.88;5016212;28;20064;-63
2021/01/23 01:34:32;;;;;;;1.40;1.30;;;;;;;-0.27;96.45;94948.00;5021377;28;20124;-62
2021/01/23 01:36:58;;;;;;;1.27;1.10;;;;;;;-0.34;96.55;94951.28;5023052;28;20457;-62
2021/01/23 01:39:23;;;;;;;1.50;1.40;;;;;;;-0.35;96.59;94965.09;5013848;28;20512;-62
2021/01/23 01:41:49;;;;;;;1.50;1.40;;;;;;;-0.39;97.13;94978.44;5013889;28;20041;-62
2021/01/23 01:44:14;;;;;;;1.30;1.20;;;;;;;-0.30;97.39;94987.16;5015066;28;20498;-63
2021/01/23 01:46:40;;;;;;;1.00;1.00;;;;;;;-0.32;97.63;94985.94;5019614;28;20038;-62
2021/01/23 01:49:07;;;;;;;1.20;1.10;;;;;;;-0.45;97.40;94995.91;5015941;28;20379;-63
2021/01/23 01:51:33;;;;;;;1.38;1.27;;;;;;;-0.34;97.79;94998.91;5027664;28;20049;-62
2021/01/23 01:53:59;;;;;;;1.15;1.10;;;;;;;-0.27;97.73;95009.91;5031703;28;20041;-64
2021/01/23 01:56:25;;;;;;;1.42;1.30;;;;;;;-0.27;96.97;95013.38;5019353;28;20895;-62
2021/01/23 01:58:50;;;;;;;0.80;0.80;;;;;;;-0.43;97.17;95021.34;5020108;28;20052;-60
2021/01/23 02:01:16;;;;;;;1.48;1.10;;;;;;;-0.41;97.66;95027.19;5015461;28;20042;-62
2021/01/23 02:03:41;;;;;;;2.47;1.33;;;;;;;-0.36;97.53;95039.63;5021195;28;20442;-62
2021/01/23 02:06:11;;;;;;;1.30;1.20;;;;;;;-0.33;97.72;95040.84;5017175;28;20069;-61
2021/01/23 02:08:48;;;;;;;1.05;1.00;;;;;;;-0.42;97.60;95036.34;5021492;28;20505;-63
2021/01/23 02:11:17;;;;;;;1.20;1.10;;;;;;;-0.40;97.90;95042.22;5015393;28;20075;-63
2021/01/23 02:13:51;;;;;;;1.30;1.20;;;;;;;-0.38;98.07;95041.84;5025269;28;20599;-63
2021/01/23 02:16:33;;;;;;;1.27;1.13;;;;;;;-0.39;97.90;95062.59;5020761;28;20044;-62
2021/01/23 02:19:32;;;;;;;1.17;1.10;;;;;;;-0.41;97.88;95056.00;5021826;28;20388;-61
2021/01/23 02:22:21;;;;;;;1.40;1.30;;;;;;;-0.40;97.90;95069.09;5020435;28;20064;-63
2021/01/23 02:24:49;;;;;;;1.15;1.05;;;;;;;-0.40;98.57;95079.88;5003197;28;20100;-62
2021/01/23 02:27:15;;;;;;;1.30;1.20;;;;;;;-0.33;98.12;95083.88;5013205;28;20049;-62
2021/01/23 02:29:56;;;;;;;1.25;1.13;;;;;;;-0.39;98.21;95088.72;5018895;28;20045;-61
2021/01/23 02:32:22;;;;;;;1.27;1.17;;;;;;;-0.35;98.18;95094.22;5012758;28;20037;-61
2021/01/23 02:34:48;;;;;;;0.88;0.88;;;;;;;-0.35;98.36;95102.28;5020898;28;20048;-62
2021/01/23 02:37:14;;;;;;;1.20;1.10;;;;;;;-0.37;98.44;95107.22;5015872;28;20033;-61
2021/01/23 02:39:40;;;;;;;1.23;1.00;;;;;;;-0.40;98.27;95106.78;5020391;28;20517;-61
2021/01/23 02:42:06;;;;;;;1.40;0.93;;;;;;;-0.35;98.26;95108.44;4998084;28;20044;-61
2021/01/23 02:44:31;;;;;;;1.27;1.15;;;;;;;-0.42;97.91;95117.06;5024349;28;20045;-62
2021/01/23 02:46:57;;;;;;;1.20;1.10;;;;;;;-0.39;98.43;95124.47;5038380;28;20043;-61
2021/01/23 02:49:24;;;;;;;1.10;1.00;;;;;;;-0.34;98.25;95126.16;5026418;28;20111;-62
2021/01/23 02:52:06;;;;;;;1.70;1.20;;;;;;;-0.37;98.10;95129.50;5024174;28;20057;-62
2021/01/23 02:54:31;;;;;;;1.20;1.10;;;;;;;-0.38;98.43;95117.16;5019446;28;20042;-61
2021/01/23 02:57:00;;;;;;;1.48;1.35;;;;;;;-0.27;98.39;95131.78;5020845;28;20038;-61
2021/01/23 02:59:26;;;;;;;1.57;1.30;;;;;;;-0.36;97.98;95146.44;5014729;28;20049;-62
2021/01/23 03:01:53;;;;;;;1.10;1.00;;;;;;;-0.33;98.12;95146.53;5020795;28;20037;-59
2021/01/23 03:04:20;;;;;;;0.93;0.85;;;;;;;-0.34;98.00;95142.31;5016241;28;20128;-62
2021/01/23 03:06:47;;;;;;;1.20;1.10;;;;;;;-0.34;97.83;95149.56;5019926;28;20144;-62
2021/01/23 03:09:19;;;;;;;1.33;1.02;;;;;;;-0.29;98.34;95160.91;5015457;28;20069;-60
2021/01/23 03:11:45;;;;;;;1.52;1.20;;;;;;;-0.32;98.26;95155.41;5015457;28;20140;-60
2021/01/23 03:14:11;;;;;;;1.30;1.20;;;;;;;-0.34;98.25;95158.44;5016415;28;20262;-60
2021/01/23 03:16:37;;;;;;;1.90;1.13;;;;;;;-0.20;98.41;95161.59;5020434;28;20463;-62
2021/01/23 03:19:04;;;;;;;1.10;1.00;;;;;;;-0.31;98.39;95173.91;5017775;28;20128;-61
2021/01/23 03:21:29;;;;;;;1.42;1.25;;;;;;;-0.33;98.27;95167.28;5019721;28;20045;-60
2021/01/23 03:23:55;;;;;;;0.80;0.80;;;;;;;-0.25;98.52;95185.25;5019571;28;20099;-60
2021/01/23 03:26:21;;;;;;;1.08;0.88;;;;;;;-0.29;98.22;95182.44;5019118;28;21592;-61
2021/01/23 03:28:46;;;;;;;1.10;1.00;;;;;;;-0.23;98.56;95191.88;5025838;28;20042;-64
2021/01/23 03:31:12;;;;;;;0.88;0.85;;;;;;;-0.26;99.07;95194.44;5027878;28;20045;-62
2021/01/23 03:33:37;;;;;;;0.98;0.90;;;;;;;-0.23;98.86;95194.56;5036177;28;20498;-62
2021/01/23 03:36:03;;;;;;;1.10;0.95;;;;;;;-0.14;98.71;95204.44;5034541;28;20088;-63
2021/01/23 03:38:28;;;;;;;1.15;0.98;;;;;;;-0.12;98.61;95210.28;5021327;28;20041;-60
2021/01/23 03:40:54;;;;;;;1.77;1.35;;;;;;;-0.20;97.97;95211.91;5024691;28;20052;-60
2021/01/23 03:43:19;;;;;;;1.30;1.20;;;;;;;-0.25;98.02;95214.84;5010811;28;20074;-60
2021/01/23 03:45:44;;;;;;;1.17;1.08;;;;;;;-0.31;98.33;95224.25;5021666;28;20044;-61
2021/01/23 03:48:10;;;;;;;1.27;1.08;;;;;;;-0.30;98.66;95215.06;5014571;28;20033;-61
2021/01/23 03:50:35;;;;;;;1.45;1.20;;;;;;;-0.30;98.93;95225.81;5022354;28;20048;-62
2021/01/23 03:53:01;;;;;;;1.17;1.05;;;;;;;-0.29;98.67;95227.38;5022750;28;20522;-61
2021/01/23 03:55:26;;;;;;;1.38;1.13;;;;;;;-0.33;99.10;95229.94;5021278;28;20503;-61
2021/01/23 03:57:52;;;;;;;1.35;1.25;;;;;;;-0.34;98.66;95225.69;5024257;28;20045;-61
2021/01/23 04:00:18;;;;;;;1.05;0.95;;;;;;;-0.28;98.99;95231.66;5013230;28;20038;-61
2021/01/23 04:02:44;;;;;;;1.02;0.85;;;;;;;-0.37;98.53;95231.75;5021641;28;20037;-61
2021/01/23 04:05:10;;;;;;;1.52;1.20;;;;;;;-0.30;99.08;95241.97;5017073;28;20037;-61
2021/01/23 04:07:35;;;;;;;1.75;1.10;;;;;;;-0.29;98.58;95235.44;5020778;28;20045;-61
2021/01/23 04:10:02;;;;;;;1.30;1.20;;;;;;;-0.32;98.53;95242.28;5010835;28;20236;-61
2021/01/23 04:12:29;;;;;;;1.30;1.20;;;;;;;-0.30;98.80;95241.97;5020294;28;20077;-62
2021/01/23 04:14:55;;;;;;;1.95;1.10;;;;;;;-0.36;98.96;95245.97;5024626;28;20382;-61
2021/01/23 04:17:20;;;;;;;1.70;1.33;;;;;;;-0.35;98.97;95232.19;5018010;28;20115;-62
2021/01/23 04:19:46;;;;;;;1.50;1.30;;;;;;;-0.33;99.09;95245.31;4996509;28;20045;-62
2021/01/23 04:22:11;;;;;;;1.58;1.30;;;;;;;-0.34;98.76;95244.53;4989717;28;20065;-62
2021/01/23 04:24:37;;;;;;;1.20;1.10;;;;;;;-0.23;98.98;95251.06;5018058;28;20053;-61
2021/01/23 04:27:02;;;;;;;1.90;1.50;;;;;;;-0.33;98.85;95251.47;5014530;28;20110;-61
2021/01/23 04:29:28;;;;;;;1.52;1.27;;;;;;;-0.29;98.99;95249.72;5003250;28;20052;-63
2021/01/23 04:31:53;;;;;;;1.80;1.15;;;;;;;-0.16;98.95;95247.03;5017961;28;20045;-63
2021/01/23 04:34:19;;;;;;;1.25;0.95;;;;;;;-0.26;99.04;95249.03;5014293;28;20037;-63
2021/01/23 04:36:44;;;;;;;1.48;1.20;;;;;;;-0.26;98.62;95243.66;5023837;28;20543;-63
2021/01/23 04:39:10;;;;;;;1.55;1.17;;;;;;;-0.17;98.54;95251.63;5016222;28;20041;-62
2021/01/23 04:41:35;;;;;;;1.88;1.20;;;;;;;-0.22;98.90;95247.25;5011945;28;20042;-63
2021/01/23 04:44:00;;;;;;;1.40;1.20;;;;;;;-0.22;98.82;95247.25;5011332;28;20656;-62
2021/01/23 04:46:26;;;;;;;2.25;1.13;;;;;;;-0.24;98.67;95244.09;5008433;28;20481;-63
2021/01/23 04:48:51;;;;;;;1.27;1.15;;;;;;;-0.16;98.79;95249.72;5012386;28;20137;-61
2021/01/23 04:51:17;;;;;;;1.30;1.20;;;;;;;-0.11;98.61;95249.50;5018858;28;20034;-62
2021/01/23 04:53:45;;;;;;;1.42;1.30;;;;;;;-0.18;98.52;95247.38;5027913;28;20056;-62
2021/01/23 04:56:11;;;;;;;1.83;1.10;;;;;;;-0.06;99.13;95242.00;5018811;28;20037;-62
2021/01/23 04:58:36;;;;;;;1.92;1.30;;;;;;;-0.15;98.24;95246.69;5005346;28;20059;-62
2021/01/23 05:01:03;;;;;;;1.35;1.00;;;;;;;-0.20;98.50;95245.03;5006983;28;20058;-62
2021/01/23 05:03:29;;;;;;;2.80;2.00;;;;;;;-0.08;98.62;95230.78;5020673;28;20041;-63
2021/01/23 05:06:07;;;;;;;2.97;1.88;;;;;;;0.00;98.91;95234.53;5036351;28;20069;-63
2021/01/23 05:08:40;;;;;;;2.88;2.00;;;;;;;-0.02;98.46;95229.47;5020886;28;20049;-62
2021/01/23 05:11:05;;;;;;;3.20;1.90;;;;;;;0.06;98.23;95233.19;5016049;28;20041;-62
2021/01/23 05:13:31;;;;;;;2.70;2.00;;;;;;;0.16;97.66;95231.94;5037465;28;20123;-63
2021/01/23 05:15:57;;;;;;;3.40;1.90;;;;;;;0.15;97.64;95235.78;5036573;28;20076;-63
2021/01/23 05:18:22;;;;;;;2.83;2.10;;;;;;;0.19;97.25;95236.66;5023923;28;20500;-62
2021/01/23 05:20:50;;;;;;;6.38;2.72;;;;;;;0.15;97.35;95241.16;5023333;28;20573;-61
2021/01/23 05:23:41;;;;;;;4.03;2.67;;;;;;;0.09;97.50;95243.28;5015719;28;20133;-62
2021/01/23 05:26:06;;;;;;;3.63;2.60;;;;;;;0.09;97.39;95247.88;5009363;28;20072;-62
2021/01/23 05:28:37;;;;;;;3.78;2.95;;;;;;;0.13;97.73;95243.41;5019700;28;20065;-61
2021/01/23 05:31:04;;;;;;;4.07;2.58;;;;;;;0.08;97.35;95243.63;5019196;28;20484;-61
2021/01/23 05:33:31;;;;;;;5.28;3.30;;;;;;;0.08;97.53;95246.31;5022159;28;20068;-62
2021/01/23 05:36:09;;;;;;;4.60;2.78;;;;;;;0.07;97.23;95250.09;5021873;28;20033;-61
2021/01/23 05:38:41;;;;;;;5.43;2.67;;;;;;;0.06;96.99;95248.56;5014694;28;20092;-62
2021/01/23 05:41:08;;;;;;;6.05;3.00;;;;;;;0.17;96.69;95242.38;5015095;28;20588;-63
2021/01/23 05:43:40;;;;;;;4.25;2.97;;;;;;;0.21;96.81;95241.72;5021371;28;20099;-64
2021/01/23 05:46:08;;;;;;;4.18;2.78;;;;;;;0.17;96.18;95245.06;5014725;28;20049;-63
2021/01/23 05:48:36;;;;;;;4.63;2.72;;;;;;;0.16;96.23;95253.47;5016896;28;20056;-63
2021/01/23 05:51:02;;;;;;;3.22;2.60;;;;;;;0.21;96.42;95255.19;5017086;28;20037;-64
2021/01/23 05:53:29;;;;;;;4.53;2.67;;;;;;;0.23;96.31;95250.25;5015105;28;20049;-61
2021/01/23 05:55:54;;;;;;;4.97;3.17;;;;;;;0.17;96.58;95255.84;5008421;28;20049;-63
2021/01/23 05:58:20;;;;;;;4.85;3.05;;;;;;;0.17;96.02;95250.47;4996941;28;20077;-62
2021/01/23 06:00:48;;;;;;;5.13;2.22;;;;;;;0.19;95.39;95248.22;5015985;28;20059;-62
2021/01/23 06:03:15;;;;;;;3.85;2.63;;;;;;;0.18;95.37;95249.34;5005347;28;20069;-63
2021/01/23 06:05:41;;;;;;;3.45;2.67;;;;;;;0.22;95.38;95254.84;5016882;28;20490;-63
2021/01/23 06:08:07;;;;;;;3.28;2.60;;;;;;;0.20;94.77;95254.41;5012011;28;20104;-61
2021/01/23 06:10:34;;;;;;;3.78;2.55;;;;;;;0.31;95.22;95250.13;5020740;28;20150;-63
2021/01/23 06:13:00;;;;;;;3.75;2.47;;;;;;;0.34;94.87;95249.47;5021456;28;20408;-62
2021/01/23 06:15:31;;;;;;;5.38;2.63;;;;;;;0.37;95.06;95245.31;4994765;28;20141;-62
2021/01/23 06:17:57;;;;;;;3.63;2.70;;;;;;;0.34;95.00;95249.47;5008032;28;20045;-64
2021/01/23 06:20:56;;;;;;;3.85;2.40;;;;;;;0.23;95.06;95244.84;5016315;28;20084;-60
2021/01/23 06:23:21;;;;;;;5.53;3.22;;;;;;;0.25;95.03;95243.38;4961054;28;21563;-59
2021/01/23 06:25:50;;;;;;;3.85;2.70;;;;;;;0.23;94.79;95239.47;5015885;28;20041;-61
2021/01/23 06:28:41;;;;;;;3.85;2.80;;;;;;;0.25;95.45;95240.69;5016180;28;20049;-61
2021/01/23 06:31:25;;;;;;;6.15;3.65;;;;;;;0.22;95.11;95241.38;5016205;28;20041;-63
2021/01/23 06:33:51;;;;;;;4.60;2.92;;;;;;;0.25;95.34;95251.47;5020666;28;20061;-63
2021/01/23 06:36:20;;;;;;;4.80;2.72;;;;;;;0.22;94.99;95246.78;5011781;28;20492;-64
2021/01/23 06:39:06;;;;;;;2.85;2.38;;;;;;;0.19;95.22;95245.53;5020911;28;20091;-64
2021/01/23 06:41:33;;;;;;;3.00;2.53;;;;;;;0.27;95.41;95240.38;5018409;28;20494;-61
2021/01/23 06:44:11;;;;;;;3.80;2.80;;;;;;;0.22;95.12;95241.38;5027352;28;20108;-62
2021/01/23 06:46:38;;;;;;;3.08;2.40;;;;;;;0.24;95.55;95241.06;5023359;28;20502;-63
2021/01/23 06:49:12;;;;;;;4.18;2.55;;;;;;;0.22;95.44;95246.78;5014067;28;20038;-60
2021/01/23 06:51:41;;;;;;;3.50;2.40;;;;;;;0.30;95.40;95242.41;5016441;28;20045;-60
2021/01/23 06:54:13;;;;;;;2.42;2.05;;;;;;;0.40;95.02;95238.47;5008393;28;20044;-62
2021/01/23 06:56:44;;;;;;;3.78;2.22;;;;;;;0.39;94.60;95240.38;5020720;28;20048;-63
2021/01/23 06:59:30;;;;;;;3.50;2.60;;;;;;;0.24;95.13;95243.75;5010364;28;20474;-63
2021/01/23 07:02:06;;;;;;;4.85;2.88;;;;;;;0.13;94.79;95246.09;5014722;28;20050;-63
2021/01/23 07:04:32;;;;;;;4.05;2.80;;;;;;;0.14;95.61;95237.66;5018850;28;20043;-63
2021/01/23 07:06:58;;;;;;;5.15;3.20;;;;;;;0.23;95.12;95240.25;5020869;28;20077;-61
2021/01/23 07:09:49;;;;;;;5.10;3.20;;;;;;;0.50;94.58;95235.31;5014790;28;20577;-63
2021/01/23 07:12:50;;;;;;;23.08;11.43;;;;;;;0.66;92.93;95238.13;5015838;28;20037;-63
2021/01/23 07:15:22;;;;;;;21.38;10.80;;;;;;;0.65;93.04;95236.53;5013831;28;20029;-63
2021/01/23 07:17:47;;;;;;;13.00;6.53;;;;;;;0.55;92.50;95232.41;5019888;28;20061;-62
2021/01/23 07:20:16;;;;;;;10.50;6.18;;;;;;;0.44;92.63;95231.28;5015582;28;20490;-63
2021/01/23 07:22:43;;;;;;;8.05;6.07;;;;;;;0.32;93.23;95237.44;5020397;28;20115;-64
2021/01/23 07:25:16;;;;;;;6.10;4.20;;;;;;;0.19;94.20;95228.59;5016070;28;20378;-63
2021/01/23 07:27:44;;;;;;;4.93;3.15;;;;;;;0.13;94.66;95238.00;5019040;28;20103;-64
2021/01/23 07:30:17;;;;;;;4.28;3.50;;;;;;;0.07;95.12;95233.94;5013490;28;20038;-65
2021/01/23 07:32:46;;;;;;;6.80;3.80;;;;;;;0.06;94.93;95232.41;5012939;28;20037;-62
2021/01/23 07:35:15;;;;;;;6.97;4.00;;;;;;;-0.02;95.78;95234.84;5016749;28;20191;-65
2021/01/23 07:37:43;;;;;;;5.82;3.90;;;;;;;-0.02;96.32;95234.03;5028308;28;20033;-64
2021/01/23 07:40:11;;;;;;;5.20;3.70;;;;;;;-0.03;96.33;95229.81;5010654;28;20052;-66
2021/01/23 07:42:37;;;;;;;6.65;4.15;;;;;;;-0.07;96.54;95224.31;5028409;28;20810;-64
2021/01/23 07:45:08;;;;;;;8.77;4.18;;;;;;;-0.04;96.42;95225.53;5023418;28;20248;-61
2021/01/23 07:47:34;;;;;;;6.70;4.60;;;;;;;0.02;96.59;95226.09;4977459;28;20056;-63
2021/01/23 07:50:20;;;;;;;8.32;5.15;;;;;;;0.01;96.17;95233.38;5016469;28;20045;-64
2021/01/23 07:52:45;;;;;;;5.78;3.95;;;;;;;0.02;96.82;95226.09;5018954;28;20103;-64
2021/01/23 07:55:12;;;;;;;5.30;3.92;;;;;;;0.06;96.59;95219.72;5012532;28;20057;-63
2021/01/23 07:57:37;;;;;;;7.63;3.97;;;;;;;0.10;96.66;95226.00;5000858;28;20045;-61
2021/01/23 08:00:05;;;;;;;6.20;4.30;;;;;;;0.28;96.53;95215.00;5000198;28;20049;-60
2021/01/23 08:02:49;;;;;;;7.00;3.92;;;;;;;0.35;96.05;95226.00;5017484;28;20057;-61
2021/01/23 08:05:14;;;;;;;6.78;4.50;;;;;;;0.40;95.40;95216.91;5010617;28;20037;-63
2021/01/23 08:07:42;;;;;;;11.57;4.97;;;;;;;0.34;94.73;95219.84;5011400;28;20100;-64
2021/01/23 08:10:20;;;;;;;9.75;5.25;;;;;;;0.38;94.60;95219.97;5016541;28;20120;-63
2021/01/23 08:13:00;;;;;;;10.32;5.90;;;;;;;0.42;94.42;95220.06;5026336;28;20161;-64
2021/01/23 08:15:31;;;;;;;18.63;11.18;;;;;;;0.34;94.66;95217.16;5019984;28;20123;-63
2021/01/23 08:17:57;;;;;;;8.45;5.57;;;;;;;0.43;94.76;95211.63;5022069;28;20552;-62
2021/01/23 08:20:37;;;;;;;11.65;7.10;;;;;;;0.21;95.48;95196.72;5016676;28;20338;-63
2021/01/23 08:23:09;;;;;;;12.90;8.77;;;;;;;0.17;95.83;95207.38;5019091;28;20033;-61
2021/01/23 08:25:37;;;;;;;11.85;7.03;;;;;;;0.26;95.49;95209.97;5024063;28;20049;-63
2021/01/23 08:28:05;;;;;;;6.10;4.43;;;;;;;0.36;96.03;95203.34;5020026;28;20450;-62
2021/01/23 08:30:31;;;;;;;16.77;11.32;;;;;;;0.49;95.88;95202.22;5021807;28;20122;-62
2021/01/23 08:32:57;;;;;;;5.22;3.70;;;;;;;0.60;95.03;95197.16;5021239;28;20091;-62
2021/01/23 08:35:24;;;;;;;5.88;3.92;;;;;;;0.88;95.80;95197.22;5015551;28;20049;-62
2021/01/23 08:37:50;;;;;;;7.35;4.18;;;;;;;1.20;95.49;95199.25;5020195;28;20072;-62
2021/01/23 08:40:22;;;;;;;5.57;3.60;;;;;;;1.33;93.89;95195.38;5017031;28;20083;-63
2021/01/23 08:42:48;;;;;;;5.90;3.47;;;;;;;1.57;93.41;95199.88;5018925;28;20441;-63
2021/01/23 08:45:16;;;;;;;4.72;3.35;;;;;;;1.42;90.90;95192.53;5015491;28;20107;-62
2021/01/23 08:47:41;;;;;;;6.20;3.63;;;;;;;1.39;91.05;95194.00;5023543;28;20128;-64
2021/01/23 08:50:09;;;;;;;4.90;3.35;;;;;;;1.45;92.60;95187.22;5014903;28;20141;-63
2021/01/23 08:52:35;;;;;;;4.28;3.30;;;;;;;1.19;92.14;95182.28;5021585;28;20046;-62
2021/01/23 08:55:00;;;;;;;5.28;3.10;;;;;;;1.06;93.09;95183.44;5023571;28;20120;-63
2021/01/23 08:57:26;;;;;;;4.22;2.75;;;;;;;1.08;92.97;95178.50;5017814;28;20064;-62
2021/01/23 08:59:51;;;;;;;10.23;5.88;;;;;;;1.10;92.86;95181.66;5019980;28;20065;-63
2021/01/23 09:02:16;;;;;;;36.00;22.73;;;;;;;1.33;93.98;95184.59;5017170;28;20072;-60
2021/01/23 09:04:42;;;;;;;5.57;3.92;;;;;;;1.18;92.80;95174.53;5023162;28;20502;-63
2021/01/23 09:07:08;;;;;;;5.45;4.05;;;;;;;1.34;93.40;95175.38;5018465;28;20081;-61
2021/01/23 09:09:34;;;;;;;5.50;3.50;;;;;;;1.56;92.40;95175.94;5022291;28;20716;-62
2021/01/23 09:11:59;;;;;;;3.50;2.40;;;;;;;1.91;92.52;95171.47;5019937;28;20045;-63
2021/01/23 09:14:25;;;;;;;4.13;2.42;;;;;;;2.49;92.20;95164.72;5018195;28;20088;-63
2021/01/23 09:16:52;;;;;;;4.10;2.78;;;;;;;2.99;88.42;95164.97;5020161;28;20424;-62
2021/01/23 09:19:18;;;;;;;8.75;7.82;;;;;;;2.41;83.77;95161.06;5013474;28;20073;-61
2021/01/23 09:21:44;;;;;;;7.20;4.05;;;;;;;1.93;86.55;95152.22;5021369;28;20044;-62
2021/01/23 09:24:09;;;;;;;7.00;6.30;;;;;;;1.86;87.38;95149.34;5017904;28;20038;-62
2021/01/23 09:26:35;;;;;;;3.65;2.78;;;;;;;2.57;86.71;95155.59;5021737;28;20049;-64
2021/01/23 09:29:01;;;;;;;5.32;3.53;;;;;;;3.38;82.03;95159.56;5029732;28;20148;-63
2021/01/23 09:31:26;;;;;;;7.40;3.72;;;;;;;3.59;81.81;95151.09;5031566;28;20045;-64
2021/01/23 09:33:52;;;;;;;5.07;3.08;;;;;;;3.40;82.18;95155.38;5034439;28;20041;-63
2021/01/23 09:36:17;;;;;;;4.88;3.28;;;;;;;3.76;82.75;95163.38;5012128;28;20610;-64
2021/01/23 09:38:43;;;;;;;4.72;2.90;;;;;;;3.96;81.13;95155.97;5022705;28;20033;-63
2021/01/23 09:41:10;;;;;;;3.97;2.50;;;;;;;4.02;79.95;95154.53;5017139;28;20376;-62
2021/01/23 09:43:36;;;;;;;3.13;2.17;;;;;;;3.29;80.83;95145.50;5021387;28;20414;-63
2021/01/23 09:46:02;;;;;;;5.07;2.80;;;;;;;2.63;84.04;95143.41;5000548;28;20038;-63
2021/01/23 09:48:27;;;;;;;4.90;2.65;;;;;;;2.51;85.63;95137.34;5014606;28;20052;-63
2021/01/23 09:50:54;;;;;;;9.30;4.70;;;;;;;2.37;87.07;95129.69;5010795;28;20042;-62
2021/01/23 09:53:19;;;;;;;66.18;35.88;;;;;;;1.80;88.99;95129.13;5002801;28;20436;-63
2021/01/23 09:55:44;;;;;;;13.43;8.18;;;;;;;1.69;90.17;95124.25;5023569;28;20109;-61
2021/01/23 09:58:10;;;;;;;9.07;5.55;;;;;;;1.71;90.64;95123.88;5018516;28;20044;-62
2021/01/23 10:00:35;;;;;;;12.30;7.60;;;;;;;1.86;90.02;95119.63;5022753;28;20080;-64
2021/01/23 10:03:01;;;;;;;9.60;5.15;;;;;;;1.80;89.15;95116.41;5030248;28;20402;-64
2021/01/23 10:05:26;;;;;;;9.32;5.35;;;;;;;1.70;89.90;95106.13;5026235;28;20042;-64
2021/01/23 10:07:52;;;;;;;15.27;9.40;;;;;;;1.65;89.38;95104.47;5023982;28;20034;-62
2021/01/23 10:10:17;;;;;;;7.53;4.80;;;;;;;1.66;89.01;95102.56;5015805;28;20099;-63
2021/01/23 10:12:42;;;;;;;7.85;4.65;;;;;;;1.80;88.87;95099.41;5021019;28;20528;-64
2021/01/23 10:15:08;;;;;;;8.55;3.85;;;;;;;1.80;87.83;95073.22;4998223;28;20041;-64
2021/01/23 10:17:34;;;;;;;7.93;4.03;;;;;;;1.82;87.75;95073.66;5025768;28;20583;-63
2021/01/23 10:19:59;;;;;;;4.85;3.30;;;;;;;1.92;86.38;95067.72;5033523;28;20068;-65
2021/01/23 10:22:25;;;;;;;6.88;4.53;;;;;;;2.16;87.52;95068.66;5000662;28;20045;-63
2021/01/23 10:24:50;;;;;;;7.63;4.28;;;;;;;2.45;87.11;95063.88;5017804;28;20042;-63
2021/01/23 10:27:16;;;;;;;7.43;5.40;;;;;;;2.76;85.82;95064.88;5013368;28;20052;-63
2021/01/23 10:29:41;;;;;;;7.93;5.00;;;;;;;3.35;82.20;95058.25;5017763;28;20045;-63
2021/01/23 10:32:07;;;;;;;7.55;4.28;;;;;;;3.71;79.97;95052.63;5013287;28;20040;-63
2021/01/23 10:34:32;;;;;;;16.40;7.40;;;;;;;4.04;75.98;95051.22;5019609;28;20041;-62
2021/01/23 10:36:57;;;;;;;30.33;11.35;;;;;;;4.21;75.05;95042.56;5021333;28;20371;-63
2021/01/23 10:39:23;;;;;;;28.45;11.57;;;;;;;4.36;76.17;95036.19;5009251;28;20088;-63
2021/01/23 10:41:48;;;;;;;29.63;11.63;;;;;;;4.45;75.51;95032.41;5001100;28;20053;-63
2021/01/23 10:44:14;;;;;;;6.15;3.40;;;;;;;4.53;71.74;95023.25;4998795;28;20110;-62
2021/01/23 10:46:39;;;;;;;11.05;4.28;;;;;;;4.69;72.58;95025.75;5002254;28;20398;-62
2021/01/23 10:49:06;;;;;;;8.65;3.80;;;;;;;4.78;72.60;95018.88;5013287;28;20057;-63
2021/01/23 10:51:31;;;;;;;36.33;9.20;;;;;;;4.99;72.28;95017.59;5019295;28;20542;-62
2021/01/23 10:53:57;;;;;;;30.73;14.80;;;;;;;5.12;71.38;95015.38;5019670;28;20120;-64
2021/01/23 10:56:22;;;;;;;5.18;3.55;;;;;;;5.20;68.69;95013.50;5014863;28;20484;-64
2021/01/23 10:58:47;;;;;;;4.15;3.00;;;;;;;5.11;69.14;95011.09;5018424;28;20555;-64
2021/01/23 11:01:13;;;;;;;4.07;2.50;;;;;;;5.16;69.69;95010.75;5013984;28;20045;-63
2021/01/23 11:03:38;;;;;;;5.10;2.30;;;;;;;5.40;68.26;95008.66;5018855;28;20048;-64
2021/01/23 11:06:04;;;;;;;2.90;1.88;;;;;;;5.37;67.53;94996.63;4979097;28;20060;-61
2021/01/23 11:08:30;;;;;;;3.63;1.98;;;;;;;4.82;66.32;94996.47;5001387;28;20107;-63
2021/01/23 11:10:55;;;;;;;2.90;1.88;;;;;;;4.91;66.55;95000.44;4994234;28;20128;-64
2021/01/23 11:13:22;;;;;;;2.92;2.30;;;;;;;5.25;66.64;94991.47;5013843;28;20072;-64
2021/01/23 11:15:47;;;;;;;2.83;1.95;;;;;;;5.02;66.40;94989.69;5020453;28;20418;-64
2021/01/23 11:18:13;;;;;;;3.72;1.77;;;;;;;5.02;66.45;94978.84;4996132;28;20033;-64
2021/01/23 11:20:38;;;;;;;3.42;1.83;;;;;;;4.87;66.54;94979.84;5013905;28;20792;-64
2021/01/23 11:23:04;;;;;;;2.45;1.63;;;;;;;4.81;65.96;94970.47;4998238;28;20120;-62
2021/01/23 11:25:29;;;;;;;2.42;1.70;;;;;;;4.87;64.24;94964.34;4999281;28;20042;-62
2021/01/23 11:27:55;;;;;;;3.50;2.00;;;;;;;4.94;65.95;94960.94;5019508;28;20484;-63
2021/01/23 11:30:22;;;;;;;3.42;1.88;;;;;;;5.03;63.92;94958.69;4997443;28;20034;-64
2021/01/23 11:32:49;;;;;;;2.33;1.60;;;;;;;4.95;63.45;94960.56;4999908;28;20418;-63
2021/01/23 11:35:14;;;;;;;3.80;2.10;;;;;;;4.85;65.32;94955.03;4999916;28;20044;-64
2021/01/23 11:37:39;;;;;;;7.13;1.45;;;;;;;5.32;62.86;94945.38;5024461;28;20037;-63
2021/01/23 11:40:06;;;;;;;2.33;1.35;;;;;;;5.57;60.85;94936.66;5015258;28;20115;-62